createdAt,value
2022-12-04T00:00:01.627Z,59.26
2022-12-04T00:01:01.599Z,58.14
2022-12-04T00:02:01.620Z,55.36
2022-12-04T00:03:01.616Z,60.94
2022-12-04T00:04:01.585Z,57.74
2022-12-04T00:05:01.614Z,53.74
2022-12-04T00:06:01.586Z,55.49
2022-12-04T00:07:01.581Z,59.25
2022-12-04T00:08:01.629Z,57.49
2022-12-04T00:09:01.544Z,55.05
2022-12-04T00:10:01.529Z,56.24
2022-12-04T00:11:01.522Z,55.90
2022-12-04T00:12:01.546Z,58.45
2022-12-04T00:13:01.541Z,57.11
2022-12-04T00:14:06.500Z,55.07
2022-12-04T00:16:02.516Z,54.08
2022-12-04T00:17:01.469Z,57.35
2022-12-04T00:18:01.490Z,58.37
2022-12-04T00:19:01.505Z,60.46
2022-12-04T00:20:01.474Z,57.86
2022-12-04T00:21:01.463Z,58.05
2022-12-04T00:22:01.465Z,59.33
2022-12-04T00:23:01.431Z,55.35
2022-12-04T00:24:01.444Z,56.58
2022-12-04T00:25:01.429Z,56.94
2022-12-04T00:26:01.450Z,57.19
2022-12-04T00:27:01.412Z,57.77
2022-12-04T00:28:01.412Z,56.20
2022-12-04T00:29:01.407Z,57.66
2022-12-04T00:30:01.391Z,55.69
2022-12-04T00:31:01.407Z,60.91
2022-12-04T00:32:01.533Z,54.70
2022-12-04T00:33:01.374Z,54.99
2022-12-04T00:34:02.096Z,59.80
2022-12-04T00:35:01.375Z,59.92
2022-12-04T00:36:01.370Z,56.99
2022-12-04T00:37:01.372Z,60.12
2022-12-04T00:38:01.347Z,57.14
2022-12-04T00:39:01.340Z,56.70
2022-12-04T00:40:01.351Z,57.33
2022-12-04T00:41:01.351Z,54.18
2022-12-04T00:42:01.352Z,58.22
2022-12-04T00:43:01.341Z,54.07
2022-12-04T00:44:01.313Z,55.30
2022-12-04T00:45:01.326Z,54.33
2022-12-04T00:46:01.372Z,52.71
2022-12-04T00:47:01.318Z,55.25
2022-12-04T00:48:01.292Z,56.61
2022-12-04T00:49:01.292Z,58.15
2022-12-04T00:50:01.290Z,55.97
2022-12-04T00:51:01.269Z,57.18
2022-12-04T00:52:01.269Z,57.68
2022-12-04T00:53:01.248Z,57.75
2022-12-04T00:54:01.253Z,61.29
2022-12-04T00:55:01.241Z,57.49
2022-12-04T00:56:01.246Z,55.88
2022-12-04T00:57:01.233Z,56.97
2022-12-04T00:58:01.257Z,58.56
2022-12-04T00:59:01.230Z,57.98
2022-12-04T01:00:01.210Z,56.31
2022-12-04T01:01:01.230Z,56.94
2022-12-04T01:02:01.180Z,57.59
2022-12-04T01:03:01.232Z,58.08
2022-12-04T01:04:01.212Z,57.86
2022-12-04T01:05:01.158Z,55.14
2022-12-04T01:06:01.195Z,55.31
2022-12-04T01:07:05.013Z,57.92
2022-12-04T01:08:08.231Z,56.37
2022-12-04T01:09:01.260Z,56.20
2022-12-04T01:10:01.154Z,56.89
2022-12-04T01:11:01.191Z,56.36
2022-12-04T01:12:01.125Z,56.73
2022-12-04T01:13:01.124Z,56.00
2022-12-04T01:14:01.115Z,57.71
2022-12-04T01:15:01.284Z,54.47
2022-12-04T01:16:01.246Z,55.80
2022-12-04T01:17:01.309Z,53.97
2022-12-04T01:18:01.080Z,57.61
2022-12-04T01:19:01.328Z,54.16
2022-12-04T01:20:01.098Z,55.51
2022-12-04T01:21:01.090Z,56.65
2022-12-04T01:22:01.300Z,56.55
2022-12-04T01:23:01.106Z,57.62
2022-12-04T01:24:01.064Z,59.08
2022-12-04T01:25:01.036Z,56.01
2022-12-04T01:26:01.260Z,55.82
2022-12-04T01:27:01.034Z,58.15
2022-12-04T01:28:01.083Z,55.58
2022-12-04T01:29:01.111Z,55.72
2022-12-04T01:30:01.144Z,54.97
2022-12-04T01:31:00.984Z,56.12
2022-12-04T01:32:01.156Z,53.87
2022-12-04T01:33:01.065Z,52.86
2022-12-04T01:34:00.997Z,57.64
2022-12-04T01:35:01.910Z,58.29
2022-12-04T01:36:00.974Z,57.10
2022-12-04T01:37:02.122Z,58.21
2022-12-04T01:38:02.076Z,57.72
2022-12-04T01:39:01.095Z,55.19
2022-12-04T01:40:00.931Z,55.73
2022-12-04T01:41:02.944Z,54.95
2022-12-04T01:42:01.172Z,59.83
2022-12-04T01:43:01.990Z,55.28
2022-12-04T01:44:00.935Z,54.68
2022-12-04T01:45:01.051Z,55.69
2022-12-04T01:46:03.387Z,55.07
2022-12-04T01:47:01.265Z,52.49
2022-12-04T01:48:01.196Z,54.48
2022-12-04T01:49:02.359Z,55.88
2022-12-04T01:50:00.859Z,55.84
2022-12-04T01:51:00.881Z,56.00
2022-12-04T01:52:00.846Z,55.22
2022-12-04T01:53:00.859Z,54.54
2022-12-04T01:54:00.850Z,55.70
2022-12-04T01:55:01.752Z,55.09
2022-12-04T01:56:01.210Z,58.42
2022-12-04T01:57:00.969Z,57.74
2022-12-04T01:58:00.823Z,56.90
2022-12-04T01:59:00.816Z,55.87
2022-12-04T02:00:00.845Z,51.99
2022-12-04T02:01:06.521Z,53.44
2022-12-04T02:02:01.087Z,54.67
2022-12-04T02:03:00.827Z,55.17
2022-12-04T02:04:00.788Z,56.25
2022-12-04T02:05:00.789Z,57.80
2022-12-04T02:06:00.762Z,55.34
2022-12-04T02:07:00.751Z,53.42
2022-12-04T02:08:00.812Z,53.86
2022-12-04T02:09:00.799Z,55.75
2022-12-04T02:10:00.993Z,56.95
2022-12-04T02:11:01.644Z,57.72
2022-12-04T02:12:01.108Z,55.26
2022-12-04T02:13:01.339Z,53.61
2022-12-04T02:14:01.234Z,56.42
2022-12-04T02:15:00.691Z,54.37
2022-12-04T02:16:00.700Z,56.09
2022-12-04T02:17:00.962Z,56.81
2022-12-04T02:18:01.648Z,57.23
2022-12-04T02:19:00.662Z,54.20
2022-12-04T02:20:01.110Z,59.19
2022-12-04T02:21:01.128Z,54.29
2022-12-04T02:22:00.653Z,55.74
2022-12-04T02:23:01.257Z,57.87
2022-12-04T02:24:00.620Z,60.56
2022-12-04T02:25:01.762Z,57.47
2022-12-04T02:26:02.049Z,57.78
2022-12-04T02:27:01.899Z,58.33
2022-12-04T02:28:02.151Z,54.32
2022-12-04T02:29:00.751Z,56.46
2022-12-04T02:30:00.581Z,58.07
2022-12-04T02:31:01.260Z,55.91
2022-12-04T02:32:01.072Z,52.48
2022-12-04T02:33:01.918Z,55.25
2022-12-04T02:34:01.131Z,53.40
2022-12-04T02:35:01.371Z,56.09
2022-12-04T02:36:00.593Z,54.51
2022-12-04T02:37:00.882Z,54.99
2022-12-04T02:38:00.549Z,54.70
2022-12-04T02:39:00.547Z,52.24
2022-12-04T02:40:01.174Z,56.20
2022-12-04T02:41:00.506Z,55.72
2022-12-04T02:42:00.945Z,57.92
2022-12-04T02:43:00.637Z,57.16
2022-12-04T02:44:00.734Z,54.35
2022-12-04T02:45:00.475Z,55.51
2022-12-04T02:46:01.196Z,55.63
2022-12-04T02:47:00.481Z,54.14
2022-12-04T02:48:00.477Z,53.67
2022-12-04T02:49:00.458Z,55.28
2022-12-04T02:50:00.922Z,56.04
2022-12-04T02:51:00.585Z,54.80
2022-12-04T02:52:00.430Z,54.18
2022-12-04T02:53:00.641Z,54.70
2022-12-04T02:54:00.434Z,51.96
2022-12-04T02:55:05.298Z,59.26
2022-12-04T02:56:01.165Z,57.50
2022-12-04T02:57:00.392Z,56.43
2022-12-04T02:58:00.825Z,55.10
2022-12-04T02:59:00.384Z,56.32
2022-12-04T03:00:00.379Z,54.80
2022-12-04T03:01:00.661Z,54.74
2022-12-04T03:02:00.458Z,55.93
2022-12-04T03:03:00.402Z,55.03
2022-12-04T03:04:00.353Z,58.14
2022-12-04T03:05:00.344Z,53.82
2022-12-04T03:06:00.479Z,54.27
2022-12-04T03:07:00.700Z,57.94
2022-12-04T03:08:00.397Z,52.85
2022-12-04T03:09:00.319Z,52.13
2022-12-04T03:10:00.333Z,53.77
2022-12-04T03:11:00.396Z,54.17
2022-12-04T03:12:00.310Z,55.41
2022-12-04T03:13:00.398Z,56.27
2022-12-04T03:14:00.293Z,56.35
2022-12-04T03:15:00.291Z,53.52
2022-12-04T03:16:00.348Z,53.19
2022-12-04T03:17:00.608Z,54.32
2022-12-04T03:18:01.181Z,54.98
2022-12-04T03:19:00.293Z,56.59
2022-12-04T03:20:00.946Z,58.25
2022-12-04T03:21:00.843Z,57.48
2022-12-04T03:22:00.228Z,59.39
2022-12-04T03:23:01.667Z,55.38
2022-12-04T03:24:00.779Z,55.79
2022-12-04T03:25:00.696Z,57.40
2022-12-04T03:26:01.002Z,55.61
2022-12-04T03:27:00.191Z,53.15
2022-12-04T03:28:01.192Z,54.18
2022-12-04T03:29:00.190Z,55.80
2022-12-04T03:30:00.302Z,56.98
2022-12-04T03:31:00.479Z,55.02
2022-12-04T03:32:00.153Z,58.73
2022-12-04T03:33:00.163Z,54.71
2022-12-04T03:34:00.160Z,54.06
2022-12-04T03:35:00.154Z,53.35
2022-12-04T03:36:01.156Z,55.53
2022-12-04T03:37:00.372Z,54.88
2022-12-04T03:38:01.128Z,55.03
2022-12-04T03:39:00.742Z,54.84
2022-12-04T03:40:00.148Z,55.08
2022-12-04T03:41:00.337Z,55.81
2022-12-04T03:42:01.007Z,56.29
2022-12-04T03:43:00.153Z,55.61
2022-12-04T03:44:00.360Z,55.29
2022-12-04T03:45:00.723Z,57.72
2022-12-04T03:46:00.181Z,57.34
2022-12-04T03:47:00.309Z,57.35
2022-12-04T03:48:00.341Z,53.20
2022-12-04T03:49:00.101Z,56.21
2022-12-04T03:50:00.040Z,57.04
2022-12-04T03:51:00.036Z,51.70
2022-12-04T03:52:00.259Z,53.34
2022-12-04T03:53:00.035Z,52.67
2022-12-04T03:54:00.073Z,52.80
2022-12-04T03:55:00.147Z,53.04
2022-12-04T03:56:00.135Z,55.12
2022-12-04T03:57:00.416Z,55.66
2022-12-04T03:58:00.700Z,53.66
2022-12-04T03:59:00.015Z,54.59
2022-12-04T04:00:00.625Z,54.80
2022-12-04T04:01:00.163Z,53.88
2022-12-04T04:02:00.457Z,61.11
2022-12-04T04:03:00.058Z,58.03
2022-12-04T04:04:00.962Z,58.70
2022-12-04T04:05:00.060Z,54.60
2022-12-04T04:05:59.991Z,53.02
2022-12-04T04:07:00.001Z,53.31
2022-12-04T04:08:01.550Z,55.17
2022-12-04T04:08:59.926Z,53.89
2022-12-04T04:10:00.148Z,55.62
2022-12-04T04:10:59.920Z,56.75
2022-12-04T04:12:00.660Z,56.38
2022-12-04T04:13:00.031Z,57.83
2022-12-04T04:14:00.051Z,57.18
2022-12-04T04:15:00.015Z,57.20
2022-12-04T04:15:59.951Z,55.85
2022-12-04T04:16:59.888Z,53.14
2022-12-04T04:18:01.201Z,54.95
2022-12-04T04:19:00.249Z,53.23
2022-12-04T04:20:00.304Z,57.73
2022-12-04T04:20:59.957Z,59.19
2022-12-04T04:22:01.159Z,57.00
2022-12-04T04:22:59.843Z,54.16
2022-12-04T04:23:59.809Z,52.34
2022-12-04T04:25:00.718Z,58.66
2022-12-04T04:25:59.853Z,56.87
2022-12-04T04:26:59.913Z,54.88
2022-12-04T04:28:00.698Z,55.54
2022-12-04T04:28:59.843Z,55.03
2022-12-04T04:29:59.985Z,57.07
2022-12-04T04:30:59.831Z,59.72
2022-12-04T04:32:01.019Z,55.37
2022-12-04T04:33:01.048Z,56.02
2022-12-04T04:33:59.872Z,60.62
2022-12-04T04:35:00.254Z,57.60
2022-12-04T04:36:00.063Z,56.36
2022-12-04T04:37:00.096Z,53.63
2022-12-04T04:37:59.779Z,58.93
2022-12-04T04:38:59.880Z,56.88
2022-12-04T04:40:00.520Z,56.18
2022-12-04T04:40:59.704Z,60.15
2022-12-04T04:41:59.703Z,55.30
2022-12-04T04:42:59.710Z,56.06
2022-12-04T04:43:59.735Z,55.98
2022-12-04T04:44:59.764Z,55.38
2022-12-04T04:46:00.161Z,56.47
2022-12-04T04:46:59.664Z,56.62
2022-12-04T04:47:59.647Z,55.31
2022-12-04T04:48:59.867Z,53.41
2022-12-04T04:50:00.559Z,57.39
2022-12-04T04:50:59.725Z,56.46
2022-12-04T04:52:00.260Z,57.73
2022-12-04T04:52:59.620Z,56.95
2022-12-04T04:53:59.607Z,55.48
2022-12-04T04:54:59.655Z,56.99
2022-12-04T04:56:00.094Z,53.73
2022-12-04T04:56:59.632Z,53.77
2022-12-04T04:57:59.576Z,54.05
2022-12-04T04:58:59.566Z,56.30
2022-12-04T04:59:59.635Z,54.72
2022-12-04T05:00:59.594Z,57.41
2022-12-04T05:01:59.639Z,55.34
2022-12-04T05:02:59.627Z,56.69
2022-12-04T05:03:59.536Z,54.28
2022-12-04T05:04:59.547Z,56.62
2022-12-04T05:05:59.626Z,52.96
2022-12-04T05:06:59.506Z,54.50
2022-12-04T05:07:59.642Z,58.34
2022-12-04T05:08:59.497Z,58.16
2022-12-04T05:09:59.701Z,55.21
2022-12-04T05:10:59.497Z,56.33
2022-12-04T05:11:59.497Z,56.05
2022-12-04T05:12:59.466Z,57.31
2022-12-04T05:13:59.497Z,52.93
2022-12-04T05:14:59.495Z,54.31
2022-12-04T05:15:59.578Z,56.35
2022-12-04T05:17:01.919Z,52.83
2022-12-04T05:17:59.456Z,55.19
2022-12-04T05:18:59.470Z,55.24
2022-12-04T05:19:59.796Z,56.95
2022-12-04T05:20:59.447Z,54.43
2022-12-04T05:21:59.433Z,55.05
2022-12-04T05:22:59.426Z,55.74
2022-12-04T05:23:59.413Z,55.13
2022-12-04T05:24:59.440Z,53.55
2022-12-04T05:25:59.382Z,55.46
2022-12-04T05:26:59.435Z,57.01
2022-12-04T05:27:59.534Z,56.03
2022-12-04T05:28:59.449Z,55.80
2022-12-04T05:29:59.628Z,59.14
2022-12-04T05:30:59.589Z,56.00
2022-12-04T05:31:59.379Z,52.95
2022-12-04T05:32:59.350Z,55.37
2022-12-04T05:33:59.428Z,56.41
2022-12-04T05:34:59.328Z,57.06
2022-12-04T05:35:59.362Z,55.26
2022-12-04T05:36:59.312Z,57.10
2022-12-04T05:37:59.342Z,54.24
2022-12-04T05:38:59.337Z,58.75
2022-12-04T05:39:59.473Z,57.83
2022-12-04T05:41:00.178Z,54.87
2022-12-04T05:41:59.293Z,57.44
2022-12-04T05:42:59.355Z,57.00
2022-12-04T05:43:59.570Z,56.21
2022-12-04T05:44:59.793Z,55.71
2022-12-04T05:45:59.750Z,56.03
2022-12-04T05:46:59.372Z,57.17
2022-12-04T05:47:59.246Z,58.21
2022-12-04T05:48:59.241Z,56.17
2022-12-04T05:49:59.415Z,55.91
2022-12-04T05:50:59.231Z,52.29
2022-12-04T05:51:59.607Z,54.84
2022-12-04T05:52:59.297Z,56.20
2022-12-04T05:53:59.338Z,53.76
2022-12-04T05:54:59.716Z,56.41
2022-12-04T05:55:59.248Z,56.84
2022-12-04T05:56:59.261Z,53.05
2022-12-04T05:57:59.237Z,55.49
2022-12-04T05:58:59.196Z,62.25
2022-12-04T05:59:59.394Z,53.85
2022-12-04T06:00:59.893Z,53.12
2022-12-04T06:01:59.240Z,55.98
2022-12-04T06:02:59.248Z,57.22
2022-12-04T06:03:59.149Z,54.54
2022-12-04T06:05:00.047Z,55.54
2022-12-04T06:06:00.051Z,58.33
2022-12-04T06:06:59.184Z,54.81
2022-12-04T06:07:59.248Z,57.65
2022-12-04T06:08:59.733Z,54.62
2022-12-04T06:09:59.173Z,56.51
2022-12-04T06:10:59.497Z,55.45
2022-12-04T06:11:59.495Z,58.43
2022-12-04T06:12:59.092Z,56.53
2022-12-04T06:13:59.095Z,57.06
2022-12-04T06:14:59.101Z,55.63
2022-12-04T06:15:59.258Z,54.79
2022-12-04T06:16:59.094Z,54.89
2022-12-04T06:17:59.046Z,54.93
2022-12-04T06:18:59.101Z,57.92
2022-12-04T06:19:59.440Z,58.68
2022-12-04T06:20:59.042Z,57.64
2022-12-04T06:21:59.056Z,57.11
2022-12-04T06:22:58.996Z,56.84
2022-12-04T06:23:58.985Z,56.01
2022-12-04T06:24:58.977Z,58.11
2022-12-04T06:26:05.251Z,56.20
2022-12-04T06:27:28.736Z,59.55
2022-12-04T06:28:00.009Z,57.90
2022-12-04T06:28:58.965Z,58.44
2022-12-04T06:29:59.191Z,58.85
2022-12-04T06:30:58.937Z,53.69
2022-12-04T06:31:59.007Z,59.51
2022-12-04T06:32:58.938Z,56.37
2022-12-04T06:33:58.924Z,57.40
2022-12-04T06:34:58.915Z,54.19
2022-12-04T06:35:58.912Z,58.19
2022-12-04T06:36:58.910Z,59.69
2022-12-04T06:37:58.912Z,59.76
2022-12-04T06:38:58.910Z,56.82
2022-12-04T06:39:59.249Z,57.26
2022-12-04T06:40:58.876Z,57.92
2022-12-04T06:41:58.873Z,57.11
2022-12-04T06:42:58.860Z,56.14
2022-12-04T06:43:58.857Z,56.55
2022-12-04T06:44:58.869Z,55.65
2022-12-04T06:45:58.859Z,58.61
2022-12-04T06:47:00.960Z,57.33
2022-12-04T06:47:58.841Z,57.13
2022-12-04T06:48:58.816Z,61.03
2022-12-04T06:49:59.087Z,54.60
2022-12-04T06:50:58.827Z,57.32
2022-12-04T06:51:58.801Z,55.92
2022-12-04T06:53:02.283Z,57.20
2022-12-04T06:53:58.803Z,56.30
2022-12-04T06:54:58.790Z,57.88
2022-12-04T06:55:58.784Z,57.10
2022-12-04T06:56:58.764Z,60.00
2022-12-04T06:57:58.764Z,60.18
2022-12-04T06:58:58.751Z,56.59
2022-12-04T06:59:58.851Z,57.23
2022-12-04T07:00:58.794Z,58.15
2022-12-04T07:01:58.801Z,60.36
2022-12-04T07:02:58.738Z,56.98
2022-12-04T07:03:58.745Z,57.04
2022-12-04T07:04:58.735Z,61.37
2022-12-04T07:05:58.706Z,58.83
2022-12-04T07:06:58.699Z,59.18
2022-12-04T07:07:58.746Z,57.47
2022-12-04T07:09:05.717Z,58.10
2022-12-04T07:09:58.835Z,56.57
2022-12-04T07:10:59.407Z,55.70
2022-12-04T07:11:58.681Z,56.75
2022-12-04T07:12:58.675Z,59.73
2022-12-04T07:13:58.676Z,59.74
2022-12-04T07:14:58.649Z,57.80
2022-12-04T07:15:58.668Z,55.56
2022-12-04T07:16:58.718Z,58.34
2022-12-04T07:17:58.639Z,58.23
2022-12-04T07:18:58.624Z,58.31
2022-12-04T07:19:58.922Z,60.17
2022-12-04T07:20:58.606Z,59.73
2022-12-04T07:21:58.612Z,55.65
2022-12-04T07:23:02.701Z,61.69
2022-12-04T07:23:59.604Z,61.44
2022-12-04T07:24:58.595Z,58.76
2022-12-04T07:25:58.591Z,61.17
2022-12-04T07:26:58.580Z,57.47
2022-12-04T07:27:58.576Z,58.80
2022-12-04T07:28:58.561Z,58.23
2022-12-04T07:29:58.653Z,57.98
2022-12-04T07:30:58.550Z,58.70
2022-12-04T07:31:58.613Z,60.92
2022-12-04T07:32:58.547Z,58.28
2022-12-04T07:33:58.528Z,59.41
2022-12-04T07:34:58.507Z,58.51
2022-12-04T07:35:58.510Z,60.34
2022-12-04T07:36:58.494Z,60.61
2022-12-04T07:37:58.504Z,61.15
2022-12-04T07:38:58.514Z,58.97
2022-12-04T07:39:58.673Z,60.45
2022-12-04T07:40:58.471Z,59.54
2022-12-04T07:41:58.484Z,60.84
2022-12-04T07:42:58.471Z,61.06
2022-12-04T07:43:58.459Z,56.95
2022-12-04T07:44:58.477Z,61.55
2022-12-04T07:45:58.485Z,60.72
2022-12-04T07:46:58.456Z,59.49
2022-12-04T07:47:58.427Z,59.75
2022-12-04T07:48:58.444Z,62.96
2022-12-04T07:49:58.596Z,59.21
2022-12-04T07:50:58.401Z,60.58
2022-12-04T07:51:58.389Z,60.57
2022-12-04T07:52:58.406Z,60.74
2022-12-04T07:54:02.629Z,60.75
2022-12-04T07:54:58.384Z,59.96
2022-12-04T07:55:58.369Z,60.56
2022-12-04T07:56:58.374Z,59.51
2022-12-04T07:57:58.374Z,61.56
2022-12-04T07:58:58.358Z,58.96
2022-12-04T07:59:58.474Z,59.16
2022-12-04T08:00:58.377Z,61.47
2022-12-04T08:01:58.397Z,62.41
2022-12-04T08:02:58.345Z,61.78
2022-12-04T08:03:58.422Z,60.72
2022-12-04T08:04:58.320Z,59.14
2022-12-04T08:05:58.309Z,60.67
2022-12-04T08:06:58.314Z,61.53
2022-12-04T08:07:58.389Z,60.61
2022-12-04T08:08:58.289Z,60.11
2022-12-04T08:09:58.386Z,63.62
2022-12-04T08:10:58.277Z,61.91
2022-12-04T08:11:58.288Z,61.23
2022-12-04T08:12:58.253Z,61.18
2022-12-04T08:13:58.280Z,59.53
2022-12-04T08:14:58.253Z,60.66
2022-12-04T08:15:58.234Z,61.56
2022-12-04T08:16:58.301Z,60.75
2022-12-04T08:17:58.228Z,60.68
2022-12-04T08:18:58.257Z,60.33
2022-12-04T08:19:58.528Z,61.12
2022-12-04T08:20:58.220Z,61.55
2022-12-04T08:21:58.206Z,63.13
2022-12-04T08:22:58.196Z,60.87
2022-12-04T08:23:58.215Z,61.39
2022-12-04T08:24:58.196Z,60.64
2022-12-04T08:25:58.178Z,62.34
2022-12-04T08:26:58.160Z,60.39
2022-12-04T08:27:58.159Z,60.88
2022-12-04T08:28:58.155Z,61.86
2022-12-04T08:29:58.469Z,61.45
2022-12-04T08:30:58.206Z,64.15
2022-12-04T08:31:58.134Z,62.77
2022-12-04T08:32:58.116Z,61.42
2022-12-04T08:33:58.112Z,62.08
2022-12-04T08:34:58.133Z,62.68
2022-12-04T08:35:58.104Z,60.50
2022-12-04T08:36:58.124Z,59.61
2022-12-04T08:37:58.100Z,61.79
2022-12-04T08:38:58.135Z,62.50
2022-12-04T08:39:58.359Z,58.55
2022-12-04T08:40:58.063Z,59.96
2022-12-04T08:41:58.063Z,63.46
2022-12-04T08:42:58.070Z,63.78
2022-12-04T08:43:58.142Z,60.79
2022-12-04T08:44:58.042Z,62.34
2022-12-04T08:45:58.094Z,62.15
2022-12-04T08:46:58.034Z,60.25
2022-12-04T08:47:58.024Z,62.69
2022-12-04T08:48:58.035Z,64.05
2022-12-04T08:49:58.304Z,63.11
2022-12-04T08:50:58.010Z,63.21
2022-12-04T08:51:58.005Z,63.48
2022-12-04T08:52:57.987Z,60.79
2022-12-04T08:53:57.980Z,61.17
2022-12-04T08:54:57.994Z,62.36
2022-12-04T08:55:57.992Z,63.48
2022-12-04T08:56:57.965Z,59.43
2022-12-04T08:57:57.955Z,62.63
2022-12-04T08:58:57.942Z,59.83
2022-12-04T08:59:58.325Z,63.22
2022-12-04T09:00:58.012Z,63.53
2022-12-04T09:01:58.082Z,61.21
2022-12-04T09:02:57.940Z,63.26
2022-12-04T09:03:57.998Z,64.51
2022-12-04T09:04:58.012Z,63.84
2022-12-04T09:05:57.908Z,63.64
2022-12-04T09:06:57.898Z,63.73
2022-12-04T09:07:57.928Z,61.49
2022-12-04T09:08:57.896Z,63.34
2022-12-04T09:09:58.254Z,63.19
2022-12-04T09:10:57.872Z,62.96
2022-12-04T09:11:57.905Z,63.46
2022-12-04T09:12:57.869Z,64.20
2022-12-04T09:13:57.859Z,63.58
2022-12-04T09:14:57.883Z,64.36
2022-12-04T09:15:57.918Z,63.78
2022-12-04T09:16:57.826Z,64.33
2022-12-04T09:17:57.822Z,62.95
2022-12-04T09:18:57.839Z,63.10
2022-12-04T09:20:00.909Z,61.42
2022-12-04T09:20:57.801Z,65.67
2022-12-04T09:21:57.793Z,64.11
2022-12-04T09:23:05.032Z,63.22
2022-12-04T09:23:58.840Z,64.11
2022-12-04T09:24:57.771Z,63.89
2022-12-04T09:25:57.814Z,63.54
2022-12-04T09:26:57.803Z,61.95
2022-12-04T09:27:57.758Z,62.82
2022-12-04T09:28:57.754Z,64.48
2022-12-04T09:29:58.102Z,60.33
2022-12-04T09:30:57.789Z,61.81
2022-12-04T09:31:57.756Z,61.92
2022-12-04T09:32:57.713Z,63.99
2022-12-04T09:33:57.715Z,60.61
2022-12-04T09:34:57.707Z,63.35
2022-12-04T09:35:57.692Z,62.74
2022-12-04T09:36:57.721Z,62.39
2022-12-04T09:37:57.717Z,62.91
2022-12-04T09:38:57.682Z,62.75
2022-12-04T09:39:57.898Z,63.70
2022-12-04T09:40:57.660Z,62.41
2022-12-04T09:41:57.676Z,63.33
2022-12-04T09:42:57.649Z,63.45
2022-12-04T09:43:57.635Z,63.74
2022-12-04T09:44:57.636Z,65.59
2022-12-04T09:45:57.660Z,65.36
2022-12-04T09:46:57.680Z,62.95
2022-12-04T09:47:57.642Z,62.51
2022-12-04T09:48:57.626Z,64.17
2022-12-04T09:49:57.970Z,63.78
2022-12-04T09:50:57.584Z,63.02
2022-12-04T09:51:57.581Z,64.61
2022-12-04T09:52:57.586Z,65.67
2022-12-04T09:53:57.559Z,64.84
2022-12-04T09:54:57.555Z,64.40
2022-12-04T09:55:57.576Z,65.11
2022-12-04T09:56:57.573Z,65.94
2022-12-04T09:58:01.752Z,66.83
2022-12-04T09:58:57.525Z,65.90
2022-12-04T09:59:57.943Z,64.49
2022-12-04T10:00:57.532Z,62.55
2022-12-04T10:01:57.522Z,63.68
2022-12-04T10:02:57.676Z,64.38
2022-12-04T10:04:02.635Z,63.21
2022-12-04T10:04:57.510Z,64.01
2022-12-04T10:05:57.481Z,64.40
2022-12-04T10:06:57.468Z,63.47
2022-12-04T10:07:57.502Z,65.50
2022-12-04T10:08:57.455Z,65.91
2022-12-04T10:09:57.651Z,63.09
2022-12-04T10:10:57.502Z,63.80
2022-12-04T10:11:57.471Z,61.87
2022-12-04T10:12:57.466Z,62.73
2022-12-04T10:13:57.471Z,65.03
2022-12-04T10:14:57.417Z,65.76
2022-12-04T10:15:57.463Z,65.97
2022-12-04T10:16:57.420Z,65.67
2022-12-04T10:17:57.411Z,63.54
2022-12-04T10:18:57.409Z,64.16
2022-12-04T10:19:57.745Z,64.52
2022-12-04T10:20:57.397Z,64.57
2022-12-04T10:21:57.376Z,64.69
2022-12-04T10:22:57.412Z,65.13
2022-12-04T10:23:57.371Z,64.57
2022-12-04T10:24:57.387Z,64.34
2022-12-04T10:25:57.342Z,64.91
2022-12-04T10:26:57.375Z,65.29
2022-12-04T10:27:57.341Z,65.32
2022-12-04T10:28:57.324Z,65.45
2022-12-04T10:29:57.784Z,64.83
2022-12-04T10:30:57.316Z,64.61
2022-12-04T10:31:57.335Z,65.43
2022-12-04T10:32:57.307Z,66.32
2022-12-04T10:33:57.307Z,65.38
2022-12-04T10:34:57.309Z,64.29
2022-12-04T10:35:57.310Z,66.20
2022-12-04T10:36:57.284Z,65.68
2022-12-04T10:37:57.291Z,65.37
2022-12-04T10:38:57.281Z,64.39
2022-12-04T10:39:57.572Z,65.68
2022-12-04T10:40:57.248Z,66.16
2022-12-04T10:41:57.264Z,66.21
2022-12-04T10:42:57.245Z,65.72
2022-12-04T10:43:57.259Z,63.90
2022-12-04T10:44:57.233Z,65.65
2022-12-04T10:45:57.208Z,65.48
2022-12-04T10:46:57.384Z,65.02
2022-12-04T10:47:57.221Z,66.85
2022-12-04T10:48:57.197Z,65.31
2022-12-04T10:49:57.483Z,64.92
2022-12-04T10:50:57.210Z,67.25
2022-12-04T10:51:57.183Z,64.70
2022-12-04T10:52:57.185Z,64.91
2022-12-04T10:53:57.164Z,65.93
2022-12-04T10:54:57.149Z,65.45
2022-12-04T10:55:57.182Z,65.70
2022-12-04T10:56:57.312Z,65.35
2022-12-04T10:57:57.133Z,65.46
2022-12-04T10:58:57.180Z,65.25
2022-12-04T10:59:57.573Z,65.65
2022-12-04T11:00:57.130Z,66.66
2022-12-04T11:02:01.572Z,64.93
2022-12-04T11:02:57.212Z,65.07
2022-12-04T11:03:57.092Z,66.39
2022-12-04T11:04:57.119Z,64.93
2022-12-04T11:05:57.145Z,66.28
2022-12-04T11:06:57.170Z,65.09
2022-12-04T11:07:57.115Z,65.52
2022-12-04T11:08:57.109Z,64.87
2022-12-04T11:09:57.428Z,66.77
2022-12-04T11:10:57.044Z,64.91
2022-12-04T11:11:57.133Z,65.81
2022-12-04T11:12:57.040Z,66.22
2022-12-04T11:13:57.064Z,66.48
2022-12-04T11:14:57.053Z,64.49
2022-12-04T11:15:57.092Z,66.45
2022-12-04T11:16:57.034Z,67.10
2022-12-04T11:17:57.024Z,64.76
2022-12-04T11:18:57.001Z,66.06
2022-12-04T11:19:57.260Z,65.53
2022-12-04T11:20:56.988Z,65.89
2022-12-04T11:21:57.021Z,64.12
2022-12-04T11:22:56.988Z,65.25
2022-12-04T11:23:56.983Z,65.75
2022-12-04T11:24:56.978Z,66.45
2022-12-04T11:26:02.121Z,65.32
2022-12-04T11:26:58.023Z,66.13
2022-12-04T11:27:57.055Z,66.47
2022-12-04T11:28:56.944Z,64.46
2022-12-04T11:29:57.438Z,66.60
2022-12-04T11:30:56.997Z,65.65
2022-12-04T11:31:59.350Z,64.99
2022-12-04T11:32:56.966Z,67.80
2022-12-04T11:33:56.934Z,64.48
2022-12-04T11:34:56.918Z,66.83
2022-12-04T11:35:56.946Z,66.76
2022-12-04T11:36:56.918Z,66.56
2022-12-04T11:37:56.910Z,66.34
2022-12-04T11:38:56.953Z,64.43
2022-12-04T11:39:57.158Z,65.03
2022-12-04T11:40:56.893Z,64.50
2022-12-04T11:41:57.010Z,64.74
2022-12-04T11:42:56.990Z,64.73
2022-12-04T11:44:00.241Z,63.07
2022-12-04T11:44:56.847Z,66.41
2022-12-04T11:45:56.891Z,65.50
2022-12-04T11:46:56.999Z,65.77
2022-12-04T11:47:56.840Z,66.08
2022-12-04T11:48:56.813Z,66.04
2022-12-04T11:49:57.158Z,65.88
2022-12-04T11:50:56.802Z,65.95
2022-12-04T11:51:56.787Z,65.91
2022-12-04T11:52:56.810Z,66.00
2022-12-04T11:53:56.775Z,66.24
2022-12-04T11:54:56.782Z,65.90
2022-12-04T11:55:56.787Z,66.11
2022-12-04T11:56:56.770Z,66.18
2022-12-04T11:57:56.764Z,66.32
2022-12-04T11:58:56.726Z,64.27
2022-12-04T11:59:57.097Z,66.18
2022-12-04T12:00:56.747Z,65.27
2022-12-04T12:01:58.685Z,66.23
2022-12-04T12:02:56.888Z,66.60
2022-12-04T12:03:56.716Z,67.80
2022-12-04T12:04:56.685Z,66.69
2022-12-04T12:05:56.685Z,67.40
2022-12-04T12:06:56.677Z,65.52
2022-12-04T12:08:02.583Z,66.19
2022-12-04T12:08:57.664Z,65.38
2022-12-04T12:09:57.084Z,65.27
2022-12-04T12:10:56.656Z,65.49
2022-12-04T12:11:56.677Z,65.71
2022-12-04T12:12:56.652Z,64.96
2022-12-04T12:13:56.697Z,65.07
2022-12-04T12:14:56.799Z,66.15
2022-12-04T12:15:56.621Z,65.14
2022-12-04T12:16:56.629Z,65.52
2022-12-04T12:17:56.623Z,66.90
2022-12-04T12:18:56.617Z,66.55
2022-12-04T12:19:56.798Z,65.25
2022-12-04T12:20:56.603Z,65.35
2022-12-04T12:21:58.007Z,66.58
2022-12-04T12:22:56.580Z,66.07
2022-12-04T12:23:56.568Z,66.29
2022-12-04T12:24:56.907Z,66.73
2022-12-04T12:25:56.594Z,66.21
2022-12-04T12:26:56.545Z,65.16
2022-12-04T12:27:56.565Z,65.57
2022-12-04T12:28:56.577Z,67.10
2022-12-04T12:29:56.813Z,65.70
2022-12-04T12:31:01.063Z,67.15
2022-12-04T12:31:57.623Z,67.17
2022-12-04T12:32:56.508Z,67.36
2022-12-04T12:33:56.508Z,67.00
2022-12-04T12:34:56.534Z,66.76
2022-12-04T12:35:56.540Z,66.01
2022-12-04T12:37:00.731Z,67.51
2022-12-04T12:37:56.487Z,67.20
2022-12-04T12:38:56.471Z,67.33
2022-12-04T12:39:56.613Z,67.06
2022-12-04T12:40:56.485Z,64.98
2022-12-04T12:41:56.448Z,65.80
2022-12-04T12:42:58.508Z,65.83
2022-12-04T12:43:56.471Z,66.34
2022-12-04T12:44:56.432Z,67.02
2022-12-04T12:45:56.456Z,65.53
2022-12-04T12:46:56.405Z,65.68
2022-12-04T12:47:56.399Z,66.29
2022-12-04T12:48:58.537Z,66.51
2022-12-04T12:49:56.678Z,67.03
2022-12-04T12:51:14.979Z,68.18
2022-12-04T12:51:57.389Z,66.56
2022-12-04T12:52:56.384Z,65.80